Time;durP1;ratioP1;P1;durP2;ratioP2;P2;SDS_P1;SDS_P2;PMS_P1;PMS_P2;Temp;Humidity;BMP_temperature;BMP_pressure;BME280_temperature;BME280_humidity;BME280_pressure;Samples;Min_cycle;Max_cycle;Signal;HPM_P1;HPM_P2
2021/11/05 09:42:30;;;;;;;7.53;4.93;;;;;;;8.40;99.98;99427.06;5126461;27;20561;-82
2021/11/05 09:44:58;;;;;;;8.50;5.20;;;;;;;8.99;100.00;99456.03;5127841;27;39958;-81
2021/11/05 09:47:26;;;;;;;7.80;4.30;;;;;;;9.39;97.03;99459.44;5109586;27;40576;-81
2021/11/05 09:49:54;;;;;;;7.63;5.13;;;;;;;9.72;92.90;99456.00;5127960;27;41791;-83
2021/11/05 09:52:21;;;;;;;8.13;5.23;;;;;;;9.82;90.45;99440.50;5126022;27;42151;-81
2021/11/05 09:54:51;;;;;;;5.50;4.47;;;;;;;10.18;88.59;99474.88;5110494;27;38526;-83
2021/11/05 09:57:18;;;;;;;6.60;4.00;;;;;;;10.33;87.63;99479.38;5109649;27;41749;-82
2021/11/05 09:59:47;;;;;;;5.57;3.63;;;;;;;10.39;86.26;99463.16;5125955;27;42803;-82
2021/11/05 10:02:16;;;;;;;7.47;4.50;;;;;;;10.42;84.53;99468.31;5109130;27;41483;-82
2021/11/05 10:04:44;;;;;;;7.73;4.50;;;;;;;10.56;83.09;99491.44;5128362;27;40101;-81
2021/11/05 10:07:13;;;;;;;5.13;4.37;;;;;;;10.54;82.18;99476.56;5127899;27;41834;-81
2021/11/05 10:09:44;;;;;;;6.30;4.37;;;;;;;10.72;82.01;99495.00;5109270;27;42687;-82
2021/11/05 10:12:15;;;;;;;7.17;4.87;;;;;;;10.69;81.87;99481.03;5110230;27;42090;-82
2021/11/05 10:14:44;;;;;;;5.50;4.20;;;;;;;10.85;81.63;99500.50;5127669;27;39999;-82
2021/11/05 10:17:16;;;;;;;6.67;4.30;;;;;;;10.88;81.01;99507.44;5109201;27;40796;-82
2021/11/05 10:19:54;;;;;;;6.07;4.00;;;;;;;10.87;80.91;99506.59;5125622;27;42957;-81
2021/11/05 10:22:40;;;;;;;5.77;4.03;;;;;;;10.86;79.93;99502.22;5126679;27;43376;-81
2021/11/05 10:25:26;;;;;;;6.30;4.43;;;;;;;10.93;80.18;99494.78;5126611;27;40002;-82
2021/11/05 10:28:11;;;;;;;7.03;4.63;;;;;;;11.05;80.10;99502.06;5109835;27;40926;-82
2021/11/05 10:30:50;;;;;;;7.40;5.23;;;;;;;11.20;79.27;99497.72;5109468;27;41676;-81
2021/11/05 10:33:24;;;;;;;7.53;4.50;;;;;;;11.37;78.73;99497.66;5126463;27;42338;-81
2021/11/05 10:35:53;;;;;;;6.07;4.53;;;;;;;11.39;77.46;99493.13;5128095;27;39937;-81
2021/11/05 10:38:21;;;;;;;5.23;3.73;;;;;;;11.56;77.83;99502.78;5126067;27;42778;-82
2021/11/05 10:40:53;;;;;;;6.70;4.60;;;;;;;11.64;77.15;99514.69;5125326;27;42798;-82
2021/11/05 10:43:32;;;;;;;6.83;4.67;;;;;;;11.67;77.18;99518.97;5109076;27;40863;-82
2021/11/05 10:46:00;;;;;;;6.50;4.60;;;;;;;11.67;75.90;99524.25;5106056;28;39155;-81
2021/11/05 10:48:30;;;;;;;6.10;3.93;;;;;;;11.66;76.09;99520.75;5106075;28;41847;-81
2021/11/05 10:51:01;;;;;;;7.63;5.20;;;;;;;11.64;75.95;99514.69;5113871;27;43786;-82
2021/11/05 10:53:33;;;;;;;7.07;4.23;;;;;;;11.66;76.57;99517.25;5128115;27;42008;-82
2021/11/05 10:56:02;;;;;;;7.33;4.90;;;;;;;11.62;76.54;99521.84;5090143;28;38788;-82
2021/11/05 10:58:32;;;;;;;6.33;4.63;;;;;;;11.52;76.25;99510.06;5092298;28;40654;-81
2021/11/05 11:01:02;;;;;;;5.30;3.63;;;;;;;11.60;76.97;99523.78;5111264;28;43612;-83
2021/11/05 11:03:33;;;;;;;7.77;4.57;;;;;;;11.57;76.65;99523.94;5110614;28;43965;-81
2021/11/05 11:06:06;;;;;;;5.50;4.40;;;;;;;11.52;77.01;99531.28;5094703;28;40094;-82
2021/11/05 11:08:35;;;;;;;5.77;3.93;;;;;;;11.39;76.87;99519.63;5079217;28;40606;-81
2021/11/05 11:11:17;;;;;;;7.00;4.37;;;;;;;11.40;76.59;99537.25;5111113;28;43066;-82
2021/11/05 11:13:45;;;;;;;5.23;4.30;;;;;;;11.33;76.65;99535.91;5111571;28;43160;-82
2021/11/05 11:16:19;;;;;;;5.57;3.90;;;;;;;11.28;76.27;99537.94;5111099;28;39944;-80
2021/11/05 11:18:53;;;;;;;9.23;4.63;;;;;;;11.27;75.90;99541.53;5111619;28;41826;-83
2021/11/05 11:21:23;;;;;;;6.13;4.17;;;;;;;11.22;75.97;99525.03;5093490;28;43060;-83
2021/11/05 11:23:52;;;;;;;6.03;4.03;;;;;;;11.38;75.19;99544.44;5093983;28;41186;-81
2021/11/05 11:26:20;;;;;;;7.80;4.30;;;;;;;11.41;75.48;99533.66;5094268;28;40164;-81
2021/11/05 11:28:48;;;;;;;6.53;4.87;;;;;;;11.42;74.91;99524.78;5094455;28;40630;-81
2021/11/05 11:31:17;;;;;;;5.50;3.97;;;;;;;11.57;75.55;99539.84;5094112;28;43574;-82
2021/11/05 11:33:46;;;;;;;6.03;3.77;;;;;;;11.61;75.25;99541.41;5110505;28;42515;-82
2021/11/05 11:36:16;;;;;;;6.40;4.33;;;;;;;11.63;75.31;99544.78;5110952;28;39930;-82
2021/11/05 11:38:45;;;;;;;8.17;3.93;;;;;;;11.64;75.00;99546.50;5094300;28;40798;-81
2021/11/05 11:41:14;;;;;;;6.47;3.80;;;;;;;11.60;75.04;99538.84;5111499;28;42676;-82
2021/11/05 11:43:42;;;;;;;6.50;4.10;;;;;;;11.61;75.15;99538.75;5111825;28;43097;-81
2021/11/05 11:46:10;;;;;;;6.53;3.80;;;;;;;11.73;75.17;99556.63;5093906;28;39033;-81
2021/11/05 11:48:47;;;;;;;6.40;3.87;;;;;;;11.80;75.43;99552.72;5094071;28;40624;-81
2021/11/05 11:51:43;;;;;;;7.37;4.87;;;;;;;11.92;74.74;99556.47;5110865;28;42155;-81
2021/11/05 11:54:29;;;;;;;7.77;5.10;;;;;;;11.98;73.94;99555.28;5110890;28;42591;-81
2021/11/05 11:57:11;;;;;;;7.57;4.70;;;;;;;11.97;73.70;99550.91;5110813;28;39895;-80
2021/11/05 11:59:40;;;;;;;9.53;5.80;;;;;;;12.01;73.64;99547.97;5110978;28;42712;-83
2021/11/05 12:02:32;;;;;;;7.27;4.83;;;;;;;12.20;72.74;99572.53;5093702;28;43487;-84
2021/11/05 12:05:01;;;;;;;7.37;4.87;;;;;;;12.28;72.93;99572.09;5108829;28;42154;-81
2021/11/05 12:07:30;;;;;;;8.37;5.07;;;;;;;12.38;72.33;99572.41;5093226;28;39886;-82
2021/11/05 12:10:30;;;;;;;8.23;4.37;;;;;;;12.58;71.76;99572.97;5108626;28;42272;-83
2021/11/05 12:12:58;;;;;;;8.03;4.80;;;;;;;12.77;71.68;99567.38;5094110;28;42132;-83
2021/11/05 12:15:26;;;;;;;7.97;4.77;;;;;;;13.23;70.70;99581.41;5090975;28;41149;-83
2021/11/05 12:18:08;;;;;;;6.90;4.07;;;;;;;13.65;68.47;99587.69;5092010;28;40013;-82
2021/11/05 12:20:39;;;;;;;5.43;3.97;;;;;;;13.76;68.53;99577.19;5078071;28;41485;-80
2021/11/05 12:23:26;;;;;;;7.33;4.30;;;;;;;13.90;68.20;99571.84;5108801;28;42406;-85
2021/11/05 12:25:58;;;;;;;7.43;4.77;;;;;;;14.19;67.41;99593.06;5090260;28;41105;-82
2021/11/05 12:28:30;;;;;;;7.10;4.67;;;;;;;14.10;66.98;99583.84;5092242;28;40216;-81
2021/11/05 12:31:29;;;;;;;5.50;4.03;;;;;;;14.38;66.81;99599.75;5107895;28;42478;-82
2021/11/05 12:34:17;;;;;;;6.87;4.73;;;;;;;14.87;65.26;99611.63;5090635;28;41509;-81
2021/11/05 12:36:47;;;;;;;5.20;4.07;;;;;;;15.26;64.14;99614.22;5074940;28;41208;-83
2021/11/05 12:39:28;;;;;;;5.23;4.30;;;;;;;15.45;64.06;99613.78;5104117;28;40078;-82
2021/11/05 12:42:02;;;;;;;5.57;4.27;;;;;;;15.50;62.35;99622.31;5089880;28;40890;-84
2021/11/05 12:44:53;;;;;;;5.70;4.03;;;;;;;15.74;61.54;99630.44;5076084;28;41590;-82
2021/11/05 12:47:48;;;;;;;8.97;5.03;;;;;;;15.93;61.99;99627.31;5108240;28;42821;-84
2021/11/05 12:50:21;;;;;;;8.00;5.03;;;;;;;15.84;62.02;99620.78;5091699;28;39148;-83
2021/11/05 12:52:53;;;;;;;6.07;4.13;;;;;;;15.62;60.16;99620.63;5091996;28;40746;-82
2021/11/05 12:55:24;;;;;;;6.47;4.10;;;;;;;15.44;61.39;99633.44;5106847;28;43037;-80
2021/11/05 12:57:56;;;;;;;6.17;3.97;;;;;;;15.16;62.14;99621.16;5092393;28;41335;-84
2021/11/05 13:00:28;;;;;;;5.57;4.10;;;;;;;14.96;62.40;99627.84;5090583;28;38993;-80
2021/11/05 13:02:57;;;;;;;4.37;3.40;;;;;;;14.85;61.92;99646.38;5091864;28;40886;-84
2021/11/05 13:05:27;;;;;;;5.10;3.30;;;;;;;14.66;61.00;99654.78;5089984;28;41819;-84
2021/11/05 13:07:56;;;;;;;6.47;3.90;;;;;;;14.40;60.26;99639.66;5108655;28;42173;-83
2021/11/05 13:10:27;;;;;;;4.87;3.43;;;;;;;14.25;60.97;99640.59;5091097;28;40483;-81
2021/11/05 13:12:56;;;;;;;4.47;3.27;;;;;;;14.19;61.12;99654.34;5092045;28;40994;-82
2021/11/05 13:15:24;;;;;;;5.47;3.20;;;;;;;14.10;62.63;99653.09;5090051;28;43017;-82
2021/11/05 13:17:54;;;;;;;5.10;3.30;;;;;;;13.94;63.19;99631.94;5092175;28;41009;-81
2021/11/05 13:20:24;;;;;;;4.87;3.00;;;;;;;13.96;63.79;99643.38;5090214;28;40024;-82
2021/11/05 13:22:53;;;;;;;6.63;3.70;;;;;;;13.92;63.55;99643.66;5107793;28;43257;-83
2021/11/05 13:25:24;;;;;;;4.90;3.33;;;;;;;13.84;62.66;99652.13;5089772;28;43150;-81
2021/11/05 13:28:03;;;;;;;5.20;3.47;;;;;;;13.78;63.00;99648.97;5109643;28;42052;-81
2021/11/05 13:30:36;;;;;;;5.27;3.77;;;;;;;13.67;63.61;99644.34;5106965;28;40043;-81
2021/11/05 13:33:04;;;;;;;4.87;3.80;;;;;;;13.53;62.76;99642.53;5091946;28;40799;-81
2021/11/05 13:35:41;;;;;;;3.17;2.87;;;;;;;13.51;62.85;99657.72;5106956;28;43596;-80
2021/11/05 13:38:09;;;;;;;5.17;3.77;;;;;;;13.39;62.39;99663.81;5107685;28;42688;-84
2021/11/05 13:40:44;;;;;;;3.80;3.23;;;;;;;13.28;62.86;99658.28;5109824;28;40101;-85
2021/11/05 13:43:14;;;;;;;3.63;3.10;;;;;;;13.19;62.73;99659.72;5091954;28;41708;-82
2021/11/05 13:45:50;;;;;;;4.47;2.77;;;;;;;13.04;62.86;99639.31;5108553;28;42980;-83
2021/11/05 13:48:26;;;;;;;3.97;3.17;;;;;;;13.16;63.29;99662.53;5091929;28;41144;-83
2021/11/05 13:51:06;;;;;;;4.63;3.13;;;;;;;13.13;63.54;99652.06;5109374;28;40108;-81
2021/11/05 13:53:35;;;;;;;5.00;2.77;;;;;;;13.28;63.61;99653.81;5092951;28;40153;-82
2021/11/05 13:56:13;;;;;;;5.20;3.60;;;;;;;13.52;60.94;99698.50;5087696;28;42497;-82
2021/11/05 13:58:43;;;;;;;3.63;2.67;;;;;;;13.56;61.28;99700.03;5100273;28;40873;-83
2021/11/05 14:01:17;;;;;;;4.47;2.83;;;;;;;13.51;60.77;99680.81;5116715;28;40130;-81
2021/11/05 14:03:48;;;;;;;3.70;2.50;;;;;;;13.70;61.79;99694.72;5101195;28;40823;-79
2021/11/05 14:06:17;;;;;;;4.47;2.73;;;;;;;13.65;60.34;99708.31;5099692;28;41957;-80
2021/11/05 14:08:49;;;;;;;3.37;3.00;;;;;;;13.47;61.08;99685.50;5100336;28;41638;-81
2021/11/05 14:11:31;;;;;;;4.60;3.40;;;;;;;13.46;60.56;99714.88;5098238;28;38886;-82
2021/11/05 14:14:00;;;;;;;4.50;3.03;;;;;;;13.36;60.29;99713.69;5082824;28;41623;-81
2021/11/05 14:16:31;;;;;;;3.53;2.67;;;;;;;13.10;61.27;99673.53;5108950;28;41790;-81
2021/11/05 14:19:10;;;;;;;5.50;3.37;;;;;;;13.22;62.08;99691.44;5109130;28;41197;-83
2021/11/05 14:21:38;;;;;;;3.70;2.83;;;;;;;13.12;62.12;99690.22;5110156;28;40424;-83
2021/11/05 14:24:20;;;;;;;6.10;3.07;;;;;;;13.13;62.57;99705.25;5091579;28;41683;-82
2021/11/05 14:26:50;;;;;;;4.83;3.03;;;;;;;13.04;62.97;99704.94;5091929;28;41843;-83
2021/11/05 14:29:21;;;;;;;4.53;3.30;;;;;;;12.97;62.72;99704.47;5113302;28;41375;-83
2021/11/05 14:31:57;;;;;;;4.53;3.80;;;;;;;12.84;62.76;99695.50;5113146;28;39853;-81
2021/11/05 14:34:27;;;;;;;4.17;2.63;;;;;;;12.76;62.91;99697.72;5111481;28;40645;-82
2021/11/05 14:37:07;;;;;;;5.50;3.70;;;;;;;12.71;63.04;99705.97;5095347;28;41973;-80
2021/11/05 14:39:54;;;;;;;4.53;2.90;;;;;;;12.66;63.55;99705.38;5111472;28;42182;-82
2021/11/05 14:42:26;;;;;;;4.30;3.00;;;;;;;12.53;63.56;99691.94;5094878;28;39903;-84
2021/11/05 14:44:56;;;;;;;3.70;2.93;;;;;;;12.57;63.83;99708.56;5112419;28;41876;-83
2021/11/05 14:47:24;;;;;;;4.37;2.97;;;;;;;12.53;63.50;99710.53;5112100;28;42788;-83
2021/11/05 14:50:08;;;;;;;5.00;3.37;;;;;;;12.39;64.32;99693.66;5112515;28;41188;-82
2021/11/05 14:52:51;;;;;;;5.20;2.97;;;;;;;12.40;64.23;99709.50;5112021;28;38649;-83
2021/11/05 14:55:20;;;;;;;4.47;3.17;;;;;;;12.21;64.13;99707.03;5110953;28;42610;-82
2021/11/05 14:57:50;;;;;;;3.23;2.57;;;;;;;12.10;64.34;99703.25;5112013;28;42145;-81
2021/11/05 15:00:23;;;;;;;3.87;2.73;;;;;;;12.03;64.07;99712.50;5094466;28;41060;-82
2021/11/05 15:02:51;;;;;;;4.10;3.27;;;;;;;12.02;64.50;99732.00;5094118;28;39017;-80
2021/11/05 15:05:30;;;;;;;3.43;2.17;;;;;;;11.94;64.66;99728.94;5111035;28;43379;-81
2021/11/05 15:08:00;;;;;;;4.33;2.63;;;;;;;11.83;64.75;99725.06;5095470;28;41978;-82
2021/11/05 15:10:31;;;;;;;4.07;2.83;;;;;;;11.72;64.76;99716.78;5093071;28;42267;-82
2021/11/05 15:12:59;;;;;;;6.03;3.40;;;;;;;11.74;65.22;99725.53;5094928;28;38884;-82
2021/11/05 15:15:29;;;;;;;6.23;3.00;;;;;;;11.66;64.92;99732.16;5111287;28;41851;-82
2021/11/05 15:17:57;;;;;;;5.63;2.53;;;;;;;11.60;65.19;99730.69;5093960;28;41681;-80
2021/11/05 15:20:25;;;;;;;4.90;3.00;;;;;;;11.52;65.66;99740.84;5112094;28;42096;-82
2021/11/05 15:22:54;;;;;;;3.40;2.37;;;;;;;11.42;66.20;99732.50;5094262;28;38839;-82
2021/11/05 15:25:22;;;;;;;3.60;2.70;;;;;;;11.54;66.58;99752.22;5093544;28;40732;-80
2021/11/05 15:27:50;;;;;;;4.73;2.53;;;;;;;11.43;66.60;99734.22;5093257;28;42836;-80
2021/11/05 15:30:22;;;;;;;4.03;2.17;;;;;;;11.45;66.46;99748.28;5110892;28;41161;-83
2021/11/05 15:32:51;;;;;;;4.90;2.70;;;;;;;11.36;66.66;99738.16;5094387;28;38886;-82
2021/11/05 15:35:19;;;;;;;3.43;2.33;;;;;;;11.33;66.94;99758.66;5093863;28;42240;-80
2021/11/05 15:37:47;;;;;;;4.80;2.83;;;;;;;11.14;66.83;99743.66;5111673;28;41801;-80
2021/11/05 15:40:19;;;;;;;2.27;1.70;;;;;;;10.97;67.19;99725.13;5093174;28;41185;-79
2021/11/05 15:42:47;;;;;;;2.43;2.23;;;;;;;10.99;67.13;99736.50;5110813;28;40920;-83
2021/11/05 15:45:15;;;;;;;4.60;3.10;;;;;;;11.08;67.44;99765.19;5093014;28;40846;-84
2021/11/05 15:47:43;;;;;;;3.87;2.00;;;;;;;10.91;67.64;99740.47;5109527;28;42609;-80
2021/11/05 15:50:13;;;;;;;3.37;1.90;;;;;;;10.87;67.86;99750.38;5093083;28;42270;-80
2021/11/05 15:52:41;;;;;;;4.10;2.70;;;;;;;10.86;67.90;99761.91;5109912;28;41336;-83
2021/11/05 15:55:09;;;;;;;3.17;2.10;;;;;;;10.77;67.97;99759.69;5093190;28;42082;-83
2021/11/05 15:57:41;;;;;;;4.30;2.73;;;;;;;10.67;68.10;99758.41;5082989;28;41908;-83
2021/11/05 16:00:10;;;;;;;6.70;3.10;;;;;;;10.46;68.49;99754.16;5107950;28;43120;-80
2021/11/05 16:02:40;;;;;;;2.73;2.53;;;;;;;10.48;68.35;99769.06;5111203;28;39909;-81
2021/11/05 16:05:09;;;;;;;4.97;2.87;;;;;;;10.30;68.59;99751.38;5093810;28;40750;-82
2021/11/05 16:07:39;;;;;;;5.00;2.63;;;;;;;10.32;68.59;99768.91;5111217;28;42652;-82
2021/11/05 16:10:07;;;;;;;4.40;2.57;;;;;;;10.23;69.03;99772.00;5094099;28;42514;-80
2021/11/05 16:12:35;;;;;;;3.70;2.13;;;;;;;10.11;69.23;99779.59;5110442;28;39370;-82
2021/11/05 16:15:04;;;;;;;4.07;2.10;;;;;;;9.99;69.33;99787.19;5110790;28;42707;-81
2021/11/05 16:17:32;;;;;;;3.70;2.03;;;;;;;9.72;69.61;99751.38;5092954;28;42307;-81
2021/11/05 16:20:00;;;;;;;3.47;2.27;;;;;;;9.79;69.77;99784.53;5092934;28;41198;-83
2021/11/05 16:22:28;;;;;;;3.77;1.80;;;;;;;9.55;69.65;99764.47;5110694;28;40197;-83
2021/11/05 16:24:57;;;;;;;2.63;1.67;;;;;;;9.60;69.73;99789.81;5088920;28;40903;-83
2021/11/05 16:27:25;;;;;;;3.20;2.33;;;;;;;9.52;70.21;99791.91;5103056;28;43726;-83
2021/11/05 16:29:53;;;;;;;2.77;1.60;;;;;;;9.38;70.41;99773.16;5110440;28;42360;-83
2021/11/05 16:32:21;;;;;;;3.83;2.23;;;;;;;9.39;70.53;99796.03;5110007;28;39084;-82
2021/11/05 16:34:48;;;;;;;4.57;3.30;;;;;;;9.32;70.70;99799.84;5092761;28;42173;-84
2021/11/05 16:37:16;;;;;;;5.73;3.13;;;;;;;9.28;70.75;99803.53;5109467;28;41808;-81
2021/11/05 16:39:44;;;;;;;5.53;2.67;;;;;;;9.23;70.90;99795.81;5110032;28;42221;-83
2021/11/05 16:42:13;;;;;;;4.20;2.57;;;;;;;9.20;70.87;99798.56;5091915;28;39277;-81
2021/11/05 16:44:40;;;;;;;5.30;2.37;;;;;;;9.04;71.00;99781.63;5093198;28;41673;-81
2021/11/05 16:47:09;;;;;;;3.37;1.70;;;;;;;9.08;71.19;99801.72;5092881;28;42113;-82
2021/11/05 16:49:37;;;;;;;4.63;2.50;;;;;;;9.01;71.39;99805.56;5111996;27;41670;-82
2021/11/05 16:52:04;;;;;;;3.57;2.23;;;;;;;8.86;71.56;99795.59;5092618;28;38969;-81
2021/11/05 16:54:32;;;;;;;3.17;2.40;;;;;;;8.84;71.50;99808.88;5093044;28;40962;-80
2021/11/05 16:57:00;;;;;;;3.63;2.03;;;;;;;8.73;71.78;99811.09;5109978;28;43802;-81
2021/11/05 16:59:29;;;;;;;4.00;2.27;;;;;;;8.64;72.11;99814.97;5109460;28;43180;-82
2021/11/05 17:01:56;;;;;;;6.20;2.57;;;;;;;8.44;71.88;99804.28;5108674;28;39992;-82
2021/11/05 17:04:24;;;;;;;4.13;2.40;;;;;;;8.46;72.42;99828.00;5108932;28;40527;-80
2021/11/05 17:06:52;;;;;;;3.90;2.20;;;;;;;8.15;72.56;99796.63;5092450;28;44486;-79
2021/11/05 17:09:22;;;;;;;6.73;3.80;;;;;;;8.41;72.20;99844.00;5092161;28;41038;-82
2021/11/05 17:11:50;;;;;;;4.73;2.83;;;;;;;8.36;72.50;99824.00;5109829;28;39688;-81
2021/11/05 17:14:18;;;;;;;6.43;3.70;;;;;;;8.50;72.69;99842.81;5092133;28;40776;-80
2021/11/05 17:16:48;;;;;;;4.03;3.07;;;;;;;8.54;72.76;99841.75;5109281;28;42649;-81
2021/11/05 17:19:16;;;;;;;5.87;3.97;;;;;;;8.55;73.07;99843.47;5109711;28;42295;-79
2021/11/05 17:21:44;;;;;;;6.00;3.63;;;;;;;8.55;73.03;99839.06;5109417;28;39026;-83
2021/11/05 17:24:11;;;;;;;6.30;3.93;;;;;;;8.46;73.31;99828.84;5108680;28;42734;-79
2021/11/05 17:26:39;;;;;;;7.77;3.43;;;;;;;8.52;73.48;99851.53;5110144;28;43572;-81
2021/11/05 17:29:07;;;;;;;4.27;3.10;;;;;;;8.49;73.79;99864.84;5109377;28;42083;-81
2021/11/05 17:31:36;;;;;;;6.60;3.77;;;;;;;8.47;73.94;99856.13;5092517;28;39911;-81
2021/11/05 17:34:06;;;;;;;6.03;3.50;;;;;;;8.44;74.00;99858.88;5092590;28;40728;-79
2021/11/05 17:36:34;;;;;;;5.70;3.63;;;;;;;8.29;73.93;99847.94;5092206;28;41985;-79
2021/11/05 17:39:02;;;;;;;8.57;4.73;;;;;;;8.29;74.26;99863.75;5093118;28;42122;-79
2021/11/05 17:41:29;;;;;;;7.33;3.63;;;;;;;8.22;74.28;99870.19;5110234;28;40158;-81
2021/11/05 17:43:57;;;;;;;6.07;3.07;;;;;;;8.12;74.70;99874.09;5109323;28;41602;-83
2021/11/05 17:46:25;;;;;;;6.30;3.50;;;;;;;8.05;74.70;99875.22;5091569;28;41992;-79
2021/11/05 17:48:52;;;;;;;9.60;3.77;;;;;;;7.87;74.66;99860.06;5092507;28;41637;-80
2021/11/05 17:51:22;;;;;;;5.47;3.33;;;;;;;7.78;74.84;99866.53;5108404;28;39640;-84
2021/11/05 17:53:49;;;;;;;3.83;2.83;;;;;;;7.84;74.92;99886.53;5091102;28;40656;-84
2021/11/05 17:56:17;;;;;;;6.53;3.10;;;;;;;7.75;75.16;99881.59;5091554;28;41817;-83
2021/11/05 17:58:44;;;;;;;5.80;3.13;;;;;;;7.63;75.04;99874.09;5092084;28;41253;-83
2021/11/05 18:01:12;;;;;;;3.03;2.23;;;;;;;7.67;75.21;99888.88;5109028;27;38732;-79
2021/11/05 18:03:40;;;;;;;4.67;2.77;;;;;;;7.56;75.39;99881.34;5093924;28;40960;-80
2021/11/05 18:06:07;;;;;;;3.67;2.77;;;;;;;7.53;75.16;99887.59;5095126;28;41727;-83
2021/11/05 18:08:36;;;;;;;4.57;2.50;;;;;;;7.49;75.30;99883.34;5078675;28;42207;-81
2021/11/05 18:11:04;;;;;;;3.40;2.63;;;;;;;7.57;75.59;99905.03;5095140;28;38823;-81
2021/11/05 18:13:32;;;;;;;6.70;3.27;;;;;;;7.51;75.55;99912.28;5112454;28;44431;-85
2021/11/05 18:16:00;;;;;;;5.43;3.93;;;;;;;7.50;75.63;99911.41;5095024;28;41589;-83
2021/11/05 18:18:28;;;;;;;5.97;3.97;;;;;;;7.50;75.85;99924.59;5095464;28;41205;-80
2021/11/05 18:20:56;;;;;;;5.40;3.20;;;;;;;7.48;75.93;99928.19;5112298;28;39921;-84
2021/11/05 18:23:23;;;;;;;6.47;3.77;;;;;;;7.46;75.87;99928.25;5095182;28;40882;-81
